Time;durP1;ratioP1;P1;durP2;ratioP2;P2;SDS_P1;SDS_P2;PMS_P1;PMS_P2;Temp;Humidity;BMP_temperature;BMP_pressure;BME280_temperature;BME280_humidity;BME280_pressure;Samples;Min_cycle;Max_cycle;Signal;HPM_P1;HPM_P2
2022/05/17 00:02:10;;;;;;;0.05;0.03;;;;;;;22.36;59.25;102453.63;5048558;28;20075;-68
2022/05/17 00:04:36;;;;;;;0.30;0.20;;;;;;;22.35;58.95;102449.19;5033075;28;20384;-67
2022/05/17 00:07:04;;;;;;;0.20;0.10;;;;;;;22.36;59.00;102452.78;5048492;28;20465;-68
2022/05/17 00:09:30;;;;;;;0.10;0.10;;;;;;;22.39;58.08;102449.72;5048349;28;20028;-68
2022/05/17 00:11:57;;;;;;;0.17;0.10;;;;;;;22.41;58.86;102450.41;5034959;28;20025;-68
2022/05/17 00:14:23;;;;;;;0.30;0.20;;;;;;;22.40;57.96;102449.53;5032914;28;20021;-68
2022/05/17 00:16:48;;;;;;;0.30;0.25;;;;;;;22.43;57.92;102449.22;5032990;28;20038;-67
2022/05/17 00:19:19;;;;;;;0.47;0.10;;;;;;;22.43;57.97;102459.31;5048166;28;20026;-68
2022/05/17 00:21:45;;;;;;;0.20;0.10;;;;;;;22.44;57.51;102456.41;5032820;28;20710;-67
2022/05/17 00:24:12;;;;;;;0.55;0.10;;;;;;;22.47;57.56;102461.56;5054942;28;20037;-66
2022/05/17 00:26:38;;;;;;;0.70;0.17;;;;;;;22.47;57.24;102457.97;5038147;28;20025;-67
2022/05/17 00:29:04;;;;;;;0.25;0.20;;;;;;;22.47;57.62;102461.56;5048200;28;20041;-68
2022/05/17 00:31:30;;;;;;;0.38;0.10;;;;;;;22.48;56.88;102459.69;5032507;28;20032;-69
2022/05/17 00:33:55;;;;;;;1.27;0.10;;;;;;;22.48;56.90;102463.28;5033404;28;20029;-67
2022/05/17 00:36:22;;;;;;;0.50;0.22;;;;;;;22.48;57.54;102463.28;5032506;28;20026;-68
2022/05/17 00:38:47;;;;;;;0.00;0.00;;;;;;;22.50;57.15;102461.25;5032567;28;20369;-68
2022/05/17 00:41:12;;;;;;;0.30;0.30;;;;;;;22.51;56.37;102460.25;5032531;28;20492;-68
2022/05/17 00:46:39;;;;;;;0.52;0.20;;;;;;;22.52;56.51;102463.84;5033399;28;20047;-68
2022/05/17 00:49:08;;;;;;;0.20;0.20;;;;;;;22.55;55.78;102459.94;5032567;28;20029;-68
2022/05/17 00:51:34;;;;;;;1.35;0.20;;;;;;;22.55;56.96;102462.66;5031054;28;20607;-68
2022/05/17 00:54:10;;;;;;;0.50;0.17;;;;;;;22.54;56.74;102467.28;5032818;28;20104;-68
2022/05/17 00:56:43;;;;;;;0.75;0.30;;;;;;;22.54;56.44;102471.91;5032245;28;20032;-68
2022/05/17 00:59:09;;;;;;;0.60;0.20;;;;;;;22.54;56.97;102463.69;5033979;28;20030;-68
2022/05/17 01:01:36;;;;;;;0.50;0.17;;;;;;;22.55;56.19;102463.53;5032177;28;20025;-68
2022/05/17 01:04:20;;;;;;;0.40;0.30;;;;;;;22.57;55.84;102460.63;5032545;28;20032;-67
2022/05/17 01:06:50;;;;;;;0.65;0.45;;;;;;;22.55;56.40;102469.00;5038107;28;20044;-68
2022/05/17 01:09:15;;;;;;;0.20;0.10;;;;;;;22.57;56.48;102471.59;5032298;28;20038;-68
2022/05/17 01:11:41;;;;;;;0.30;0.17;;;;;;;22.56;56.77;102468.00;5031616;28;20014;-68
2022/05/17 01:16:51;;;;;;;0.20;0.10;;;;;;;22.55;56.91;102457.19;5032328;28;20090;-68
2022/05/17 01:19:17;;;;;;;0.90;0.30;;;;;;;22.57;55.93;102460.63;5032294;28;20468;-68
2022/05/17 01:21:42;;;;;;;0.20;0.10;;;;;;;22.57;56.56;102466.09;5030837;28;20025;-68
2022/05/17 01:24:08;;;;;;;0.22;0.20;;;;;;;22.58;56.05;102457.72;5032167;28;20353;-68
2022/05/17 01:26:38;;;;;;;0.25;0.10;;;;;;;22.58;56.53;102467.81;5031004;28;20033;-68
2022/05/17 01:29:07;;;;;;;0.50;0.25;;;;;;;22.59;56.48;102469.53;5032089;28;20052;-68
2022/05/17 01:31:35;;;;;;;0.20;0.17;;;;;;;22.57;57.55;102460.63;5032023;28;20033;-68
2022/05/17 01:34:00;;;;;;;1.00;0.13;;;;;;;22.57;56.67;102468.84;5032154;28;20037;-68
2022/05/17 01:36:25;;;;;;;0.73;0.20;;;;;;;22.56;56.42;102461.66;5037713;28;20033;-67
2022/05/17 01:38:51;;;;;;;0.32;0.15;;;;;;;22.57;56.96;102466.09;5035872;28;20017;-68
2022/05/17 01:41:20;;;;;;;0.88;0.30;;;;;;;22.58;56.13;102463.19;5035730;28;20062;-68
2022/05/17 01:43:46;;;;;;;0.38;0.13;;;;;;;22.60;56.26;102471.25;5034772;28;20407;-68
2022/05/17 01:46:11;;;;;;;0.20;0.20;;;;;;;22.58;56.59;102465.09;5035794;28;20022;-67
2022/05/17 01:48:39;;;;;;;0.52;0.25;;;;;;;22.59;56.56;102475.88;5054448;28;20049;-67
2022/05/17 01:51:06;;;;;;;0.22;0.20;;;;;;;22.59;56.85;102464.06;5035723;28;20029;-68
2022/05/17 01:53:32;;;;;;;1.00;0.20;;;;;;;22.59;56.71;102470.41;5035534;28;20033;-68
2022/05/17 01:55:57;;;;;;;0.60;0.10;;;;;;;22.61;56.55;102468.34;5035608;28;20148;-68
2022/05/17 01:58:23;;;;;;;1.23;0.10;;;;;;;22.61;56.25;102470.25;5035335;28;20112;-68
2022/05/17 02:00:48;;;;;;;0.60;0.20;;;;;;;22.61;56.14;102472.97;5037799;28;20091;-67
2022/05/17 02:03:13;;;;;;;0.10;0.10;;;;;;;22.59;56.91;102472.28;5050714;28;20029;-69
2022/05/17 02:05:39;;;;;;;0.30;0.10;;;;;;;22.59;56.46;102469.53;5035355;28;20087;-68
2022/05/17 02:08:05;;;;;;;0.22;0.10;;;;;;;22.60;56.88;102471.25;5035362;28;20029;-68
2022/05/17 02:10:30;;;;;;;0.98;0.22;;;;;;;22.60;56.01;102477.59;5037121;28;20033;-67
2022/05/17 02:12:58;;;;;;;0.20;0.10;;;;;;;22.61;57.08;102478.47;5035582;28;20029;-68
2022/05/17 02:15:25;;;;;;;0.30;0.20;;;;;;;22.61;56.20;102479.31;5050378;28;20057;-68
2022/05/17 02:17:51;;;;;;;0.35;0.20;;;;;;;22.61;56.17;102484.81;5035232;28;20032;-68
2022/05/17 02:20:17;;;;;;;0.10;0.10;;;;;;;22.61;56.04;102484.81;5034963;28;20025;-68
2022/05/17 02:22:43;;;;;;;0.30;0.15;;;;;;;22.60;56.94;102484.97;5050115;28;20018;-66
2022/05/17 02:25:08;;;;;;;0.70;0.10;;;;;;;22.60;56.71;102494.06;5043086;28;20041;-69
2022/05/17 02:27:34;;;;;;;0.22;0.13;;;;;;;22.61;56.96;102489.44;5033540;28;20404;-68
2022/05/17 02:29:59;;;;;;;0.15;0.10;;;;;;;22.62;56.45;102500.22;5035033;28;20087;-68
2022/05/17 02:32:25;;;;;;;0.20;0.15;;;;;;;22.62;56.19;102491.16;5034771;28;20445;-68
2022/05/17 02:34:51;;;;;;;0.50;0.15;;;;;;;22.60;57.17;102499.53;5037163;28;20112;-68
2022/05/17 02:37:16;;;;;;;0.52;0.10;;;;;;;22.62;56.35;102496.63;5034712;28;20029;-69
2022/05/17 02:39:45;;;;;;;0.30;0.10;;;;;;;22.61;57.25;102500.41;5034643;28;20381;-68
2022/05/17 02:42:10;;;;;;;0.13;0.13;;;;;;;22.62;56.52;102502.13;5034765;28;20053;-69
2022/05/17 02:44:35;;;;;;;0.65;0.20;;;;;;;22.63;56.22;102498.34;5034543;28;20495;-68
2022/05/17 02:47:01;;;;;;;0.10;0.10;;;;;;;22.63;56.97;102501.94;5036690;28;20481;-68
2022/05/17 02:49:26;;;;;;;0.68;0.20;;;;;;;22.64;56.87;102505.56;5034378;28;20025;-68
2022/05/17 02:51:53;;;;;;;0.20;0.10;;;;;;;22.64;56.97;102511.03;5033597;28;20048;-68
2022/05/17 02:54:18;;;;;;;0.35;0.10;;;;;;;22.64;56.72;102511.91;5049643;28;20028;-68
2022/05/17 02:56:44;;;;;;;1.05;0.17;;;;;;;22.64;57.09;102511.91;5050048;28;20021;-68
2022/05/17 02:59:09;;;;;;;1.00;0.22;;;;;;;22.64;56.31;102516.53;5036670;28;20060;-68
2022/05/17 03:01:34;;;;;;;0.30;0.20;;;;;;;22.66;56.43;102509.00;5043954;28;20029;-67
2022/05/17 03:04:00;;;;;;;0.20;0.20;;;;;;;22.66;57.06;102514.47;5049593;28;20029;-68
2022/05/17 03:06:26;;;;;;;0.20;0.10;;;;;;;22.64;57.35;102511.03;5049456;28;20029;-68
2022/05/17 03:08:51;;;;;;;0.15;0.13;;;;;;;22.64;56.92;102516.53;5049554;28;20028;-68
2022/05/17 03:11:16;;;;;;;0.52;0.40;;;;;;;22.65;56.55;102501.78;5034127;28;20017;-68
2022/05/17 03:13:42;;;;;;;0.68;0.20;;;;;;;22.63;57.23;102506.56;5035956;28;20033;-68
2022/05/17 03:16:07;;;;;;;1.50;0.57;;;;;;;22.65;57.30;102501.78;5034099;28;20108;-68
2022/05/17 03:18:33;;;;;;;0.30;0.10;;;;;;;22.65;57.60;102507.28;5033941;28;20084;-68
2022/05/17 03:20:58;;;;;;;0.60;0.20;;;;;;;22.65;57.49;102508.13;5033915;28;20072;-68
2022/05/17 03:23:23;;;;;;;0.52;0.40;;;;;;;22.65;57.91;102507.28;5033764;28;20572;-68
2022/05/17 03:25:49;;;;;;;0.52;0.20;;;;;;;22.66;57.97;102500.75;5034755;28;20026;-68
2022/05/17 03:28:14;;;;;;;0.10;0.10;;;;;;;22.64;57.51;102511.03;5033643;28;20397;-68
2022/05/17 03:30:41;;;;;;;0.30;0.17;;;;;;;22.67;57.51;102513.44;5032421;28;20025;-68
2022/05/17 03:33:06;;;;;;;0.55;0.20;;;;;;;22.68;57.71;102515.19;5034083;28;20022;-68
2022/05/17 03:35:32;;;;;;;0.38;0.20;;;;;;;22.66;58.48;102503.50;5036418;28;20059;-66
2022/05/17 03:37:57;;;;;;;0.20;0.10;;;;;;;22.66;57.98;102509.84;5049731;28;20025;-69
2022/05/17 03:40:23;;;;;;;0.17;0.10;;;;;;;22.66;58.39;102504.38;5033374;28;20025;-68
2022/05/17 03:42:48;;;;;;;0.28;0.20;;;;;;;22.67;57.93;102522.53;5032372;28;20075;-68
2022/05/17 03:45:14;;;;;;;0.10;0.05;;;;;;;22.66;58.18;102517.22;5033567;28;20127;-68
2022/05/17 03:47:39;;;;;;;0.17;0.17;;;;;;;22.68;58.21;102517.94;5033420;28;20025;-68
2022/05/17 03:50:06;;;;;;;0.10;0.10;;;;;;;22.67;58.52;102527.16;5049707;28;20028;-67
2022/05/17 03:52:31;;;;;;;0.30;0.20;;;;;;;22.68;57.98;102528.91;5031911;28;20116;-68
2022/05/17 03:54:58;;;;;;;0.50;0.20;;;;;;;22.66;58.37;102536.41;5033359;28;20104;-68
2022/05/17 03:57:25;;;;;;;0.30;0.30;;;;;;;22.65;58.18;102534.69;5032786;28;20029;-68
2022/05/17 03:59:50;;;;;;;0.52;0.00;;;;;;;22.69;58.69;102541.59;5031649;28;20487;-69
2022/05/17 04:02:16;;;;;;;0.10;0.10;;;;;;;22.74;58.50;102529.13;5036701;28;20063;-67
2022/05/17 04:04:41;;;;;;;0.40;0.10;;;;;;;22.87;58.55;102534.22;5031852;28;20029;-69
2022/05/17 04:07:06;;;;;;;0.88;0.20;;;;;;;22.99;58.07;102535.66;5033164;28;20033;-68
2022/05/17 04:09:32;;;;;;;0.40;0.10;;;;;;;23.09;58.23;102533.66;5032899;28;20087;-68
2022/05/17 04:11:57;;;;;;;0.15;0.10;;;;;;;23.15;58.77;102536.78;5048356;28;20112;-68
2022/05/17 04:14:23;;;;;;;0.10;0.10;;;;;;;23.25;58.89;102540.28;5032864;28;20060;-68
2022/05/17 04:16:48;;;;;;;0.80;0.38;;;;;;;23.33;59.29;102534.81;5035016;28;20022;-68
2022/05/17 04:19:15;;;;;;;0.08;0.08;;;;;;;23.39;59.97;102537.78;5041204;28;20040;-68
2022/05/17 04:21:42;;;;;;;0.10;0.10;;;;;;;23.52;59.59;102539.22;5031548;28;20030;-69
2022/05/17 04:24:07;;;;;;;0.30;0.10;;;;;;;23.56;59.87;102541.47;5032841;28;20358;-68
2022/05/17 04:26:33;;;;;;;0.10;0.03;;;;;;;23.60;60.77;102542.00;5033999;28;20047;-68
2022/05/17 04:28:58;;;;;;;0.10;0.10;;;;;;;23.68;61.20;102540.19;5031419;28;20108;-68
2022/05/17 04:31:23;;;;;;;0.10;0.10;;;;;;;23.70;60.65;102543.63;5031172;28;20033;-68
2022/05/17 04:33:50;;;;;;;0.20;0.10;;;;;;;23.76;60.97;102553.06;5032748;28;20100;-68
2022/05/17 04:36:15;;;;;;;0.20;0.10;;;;;;;23.79;61.21;102547.22;5032599;28;20021;-69
2022/05/17 04:38:40;;;;;;;0.98;0.20;;;;;;;23.85;61.16;102548.44;5034235;28;20047;-69
2022/05/17 04:41:06;;;;;;;0.10;0.10;;;;;;;23.89;61.07;102552.59;5032638;28;20052;-69
2022/05/17 04:43:31;;;;;;;0.22;0.10;;;;;;;23.94;61.49;102555.69;5032471;28;20469;-69
2022/05/17 04:45:57;;;;;;;0.28;0.20;;;;;;;23.93;61.38;102565.81;5032590;28;20068;-68
2022/05/17 04:48:25;;;;;;;0.47;0.20;;;;;;;23.95;62.38;102555.50;5032378;28;20096;-69
2022/05/17 04:50:54;;;;;;;0.20;0.20;;;;;;;24.03;62.37;102560.19;5032583;28;20024;-68
2022/05/17 04:53:19;;;;;;;0.20;0.13;;;;;;;24.05;61.73;102560.88;5036391;28;20033;-69
2022/05/17 04:55:45;;;;;;;0.20;0.20;;;;;;;24.08;62.31;102573.41;5047678;28;20075;-68
2022/05/17 04:58:10;;;;;;;0.25;0.20;;;;;;;24.11;61.51;102562.09;5035916;28;20388;-67
2022/05/17 05:00:36;;;;;;;0.10;0.10;;;;;;;24.15;61.86;102564.31;5053228;28;20046;-69
2022/05/17 05:03:01;;;;;;;0.20;0.20;;;;;;;24.15;62.08;102566.19;5032515;28;20071;-67
2022/05/17 05:05:27;;;;;;;1.42;0.10;;;;;;;24.15;62.36;102564.31;5034526;28;20029;-67
2022/05/17 05:07:53;;;;;;;0.00;0.00;;;;;;;24.21;62.79;102573.78;5032514;28;20100;-68
2022/05/17 05:10:19;;;;;;;0.82;0.40;;;;;;;24.17;61.81;102562.25;5031983;28;20033;-68
2022/05/17 05:12:44;;;;;;;0.30;0.20;;;;;;;24.23;62.83;102567.09;5036462;28;20025;-68
2022/05/17 05:15:11;;;;;;;0.30;0.30;;;;;;;24.25;63.06;102554.03;5036442;28;20029;-68
2022/05/17 05:17:37;;;;;;;0.38;0.10;;;;;;;24.28;62.47;102564.69;5037221;28;20013;-69
2022/05/17 05:20:04;;;;;;;0.38;0.30;;;;;;;24.32;63.48;102562.47;5036201;28;20024;-69
2022/05/17 05:22:31;;;;;;;0.28;0.10;;;;;;;24.35;63.26;102547.53;5036044;28;20025;-69
2022/05/17 05:24:57;;;;;;;0.43;0.30;;;;;;;24.37;63.92;102559.25;5036212;28;20488;-68
2022/05/17 05:27:22;;;;;;;0.38;0.10;;;;;;;24.38;64.27;102558.22;5035763;28;20033;-69
2022/05/17 05:29:47;;;;;;;0.50;0.17;;;;;;;24.39;63.74;102562.69;5036200;28;20100;-68
2022/05/17 05:32:13;;;;;;;0.22;0.20;;;;;;;24.42;64.46;102562.34;5036770;28;20389;-69
2022/05/17 05:34:38;;;;;;;1.23;0.30;;;;;;;24.42;64.35;102567.84;5035995;28;20035;-69
2022/05/17 05:37:04;;;;;;;0.40;0.20;;;;;;;24.47;64.33;102552.53;5035936;28;20128;-68
2022/05/17 05:39:30;;;;;;;0.10;0.10;;;;;;;24.48;64.45;102559.75;5042784;28;20025;-67
2022/05/17 05:41:55;;;;;;;0.10;0.10;;;;;;;24.49;64.99;102557.84;5035773;28;20041;-69
2022/05/17 05:44:21;;;;;;;0.85;0.20;;;;;;;24.50;64.96;102565.06;5032738;28;20037;-69
2022/05/17 05:46:46;;;;;;;0.17;0.15;;;;;;;24.41;60.00;102557.88;5035165;28;20472;-72
2022/05/17 05:49:12;;;;;;;0.25;0.25;;;;;;;24.15;58.10;102563.47;5033560;28;20461;-67
2022/05/17 05:51:37;;;;;;;0.90;0.10;;;;;;;23.53;59.23;102572.00;5034655;28;20025;-67
2022/05/17 05:54:03;;;;;;;0.30;0.10;;;;;;;23.30;59.47;102574.44;5031880;28;20117;-68
2022/05/17 05:56:29;;;;;;;0.95;0.20;;;;;;;23.13;57.43;102577.22;5030509;28;20026;-69
2022/05/17 05:58:54;;;;;;;0.15;0.15;;;;;;;23.02;55.80;102571.00;5031752;28;20388;-68
2022/05/17 06:01:20;;;;;;;0.30;0.10;;;;;;;22.93;53.80;102580.19;5029444;28;20438;-68
2022/05/17 06:03:45;;;;;;;1.75;0.20;;;;;;;22.78;54.95;102577.13;5021761;28;20180;-63
2022/05/17 06:06:11;;;;;;;1.98;0.40;;;;;;;22.71;54.80;102580.69;5030813;28;20029;-64
2022/05/17 06:08:36;;;;;;;2.38;0.20;;;;;;;22.63;53.73;102583.34;5020179;28;20381;-65
2022/05/17 06:11:02;;;;;;;0.55;0.20;;;;;;;22.48;53.30;102583.88;5030534;28;20022;-66
2022/05/17 06:13:28;;;;;;;3.05;0.35;;;;;;;22.47;54.20;102593.13;5029242;28;20029;-65
2022/05/17 06:15:54;;;;;;;0.50;0.10;;;;;;;22.38;53.33;102599.56;5032008;28;20034;-65
2022/05/17 06:18:20;;;;;;;2.50;0.22;;;;;;;22.39;54.02;102590.31;5031772;28;20026;-65
2022/05/17 06:20:50;;;;;;;0.10;0.00;;;;;;;22.30;53.95;102601.34;5029631;28;20045;-65
2022/05/17 06:23:16;;;;;;;0.30;0.10;;;;;;;22.28;52.80;102601.50;5022355;28;20026;-66
2022/05/17 06:25:41;;;;;;;0.38;0.10;;;;;;;22.29;52.91;102605.97;5034266;28;20028;-66
2022/05/17 06:28:06;;;;;;;4.22;0.30;;;;;;;22.25;54.02;102593.59;5027020;28;20041;-67
2022/05/17 06:30:32;;;;;;;0.20;0.20;;;;;;;22.21;52.91;102592.19;5023930;28;20100;-66
2022/05/17 06:32:57;;;;;;;1.65;0.38;;;;;;;22.20;53.10;102595.97;5027831;28;20025;-67
2022/05/17 06:35:23;;;;;;;0.93;0.10;;;;;;;21.98;52.22;102596.34;5017782;28;20369;-70
2022/05/17 06:37:48;;;;;;;0.03;0.00;;;;;;;21.98;52.51;102601.81;5021753;28;20032;-65
2022/05/17 06:40:13;;;;;;;0.47;0.28;;;;;;;21.89;51.52;102607.22;5028525;28;20558;-66
2022/05/17 06:42:39;;;;;;;0.30;0.13;;;;;;;21.90;53.22;102606.19;5024520;28;20021;-66
2022/05/17 06:45:05;;;;;;;0.57;0.20;;;;;;;21.97;51.99;102602.81;5029412;28;20443;-66
2022/05/17 06:47:30;;;;;;;0.68;0.15;;;;;;;21.97;51.10;102611.03;5017429;28;20029;-63
2022/05/17 06:49:56;;;;;;;2.05;0.13;;;;;;;22.02;52.94;102611.47;5024737;28;20036;-64
2022/05/17 06:52:23;;;;;;;2.30;0.20;;;;;;;21.91;52.10;102610.66;5029426;28;20460;-67
2022/05/17 06:54:49;;;;;;;0.68;0.10;;;;;;;22.01;53.10;102612.47;5034504;28;20032;-68
2022/05/17 06:57:15;;;;;;;0.68;0.20;;;;;;;22.02;52.55;102614.22;5035066;28;20412;-67
2022/05/17 06:59:43;;;;;;;0.60;0.20;;;;;;;22.08;52.46;102608.13;5036625;28;20270;-66
2022/05/17 07:02:08;;;;;;;0.52;0.20;;;;;;;22.13;52.95;102606.66;5038959;28;20472;-67
2022/05/17 07:04:34;;;;;;;0.77;0.20;;;;;;;22.19;54.05;102605.19;5033445;28;20037;-67
2022/05/17 07:07:00;;;;;;;0.30;0.20;;;;;;;22.18;53.40;102620.78;5034336;28;20029;-67
2022/05/17 07:09:27;;;;;;;0.75;0.47;;;;;;;22.19;54.05;102621.63;5034902;28;20116;-66
2022/05/17 07:14:40;;;;;;;0.17;0.17;;;;;;;22.24;53.97;102635.72;5034123;28;20040;-67
2022/05/17 07:17:18;;;;;;;0.47;0.20;;;;;;;22.17;54.67;102626.38;5018026;28;20045;-68
2022/05/17 07:19:44;;;;;;;11.18;0.50;;;;;;;22.08;55.11;102630.06;5032680;28;20180;-66
2022/05/17 07:22:10;;;;;;;14.23;1.17;;;;;;;22.30;54.72;102623.25;5025376;28;20026;-66
2022/05/17 07:24:37;;;;;;;3.45;0.20;;;;;;;22.39;54.54;102623.22;5021805;28;20103;-69
2022/05/17 07:27:04;;;;;;;1.80;0.20;;;;;;;22.32;55.27;102627.56;5021655;28;20083;-66
2022/05/17 07:29:29;;;;;;;1.30;0.30;;;;;;;22.36;55.86;102626.28;5024781;28;20068;-67
2022/05/17 07:31:55;;;;;;;0.32;0.15;;;;;;;22.40;55.78;102626.81;5030152;28;20465;-66
2022/05/17 07:34:21;;;;;;;1.65;0.20;;;;;;;22.28;56.23;102634.38;5029120;28;20033;-68
2022/05/17 07:36:47;;;;;;;0.30;0.30;;;;;;;22.37;55.74;102629.88;5035645;28;20033;-67
2022/05/17 07:39:12;;;;;;;0.57;0.30;;;;;;;22.32;56.30;102623.97;5028493;28;20033;-66
2022/05/17 07:41:38;;;;;;;0.70;0.30;;;;;;;22.39;55.47;102627.84;5021280;28;20461;-66
2022/05/17 07:44:04;;;;;;;0.68;0.38;;;;;;;22.38;55.30;102642.56;5022183;28;20038;-65
2022/05/17 07:46:31;;;;;;;3.22;0.20;;;;;;;22.37;55.63;102636.22;5047292;28;20028;-66
2022/05/17 07:48:57;;;;;;;2.63;0.20;;;;;;;22.22;54.36;102637.75;5023068;28;20026;-66
2022/05/17 07:51:22;;;;;;;0.35;0.20;;;;;;;22.34;54.48;102636.53;5024572;28;20493;-67
2022/05/17 07:53:47;;;;;;;3.72;0.17;;;;;;;22.39;54.66;102639.66;5026224;28;20065;-66
2022/05/17 07:56:13;;;;;;;0.70;0.20;;;;;;;22.38;54.44;102642.56;5024503;28;20034;-65
2022/05/17 07:58:38;;;;;;;0.38;0.13;;;;;;;22.34;53.85;102642.00;5026044;28;20404;-65
2022/05/17 08:01:04;;;;;;;0.20;0.10;;;;;;;22.25;53.19;102653.88;5025112;28;20037;-65
2022/05/17 08:03:30;;;;;;;0.25;0.10;;;;;;;22.33;53.44;102653.94;5027228;28;20452;-65
2022/05/17 08:05:55;;;;;;;0.43;0.10;;;;;;;22.33;53.48;102643.00;5030793;28;20038;-66
2022/05/17 08:08:20;;;;;;;0.38;0.10;;;;;;;22.27;53.21;102640.03;5020938;28;20481;-66
2022/05/17 08:10:45;;;;;;;0.13;0.10;;;;;;;22.29;53.87;102648.94;5028428;28;20025;-66
2022/05/17 08:13:13;;;;;;;0.13;0.13;;;;;;;22.30;53.12;102646.03;5020340;28;20029;-66
2022/05/17 08:15:38;;;;;;;0.17;0.08;;;;;;;22.30;52.89;102645.19;5025184;28;20049;-66
2022/05/17 08:18:04;;;;;;;0.10;0.10;;;;;;;22.33;52.46;102656.69;5028750;28;21835;-66
2022/05/17 08:20:31;;;;;;;1.40;0.00;;;;;;;22.30;51.90;102650.66;5033609;28;20065;-66
2022/05/17 08:22:57;;;;;;;0.25;0.00;;;;;;;22.22;52.79;102648.72;5025281;28;20029;-63
2022/05/17 08:28:08;;;;;;;;;;;;;;;22.28;52.85;102653.56;5030421;28;20090;-66
2022/05/17 08:30:34;;;;;;;0.60;0.10;;;;;;;22.31;52.29;102656.00;5019073;28;20007;-66
2022/05/17 08:33:15;;;;;;;3.67;0.25;;;;;;;22.28;51.14;102658.19;5024214;28;20427;-67
2022/05/17 08:35:51;;;;;;;0.30;0.10;;;;;;;22.28;51.28;102670.00;5021356;28;20026;-67
2022/05/17 08:38:27;;;;;;;1.83;0.20;;;;;;;22.18;51.13;102661.00;5026250;28;20029;-64
2022/05/17 08:40:55;;;;;;;0.50;0.35;;;;;;;22.17;52.35;102662.88;5025109;28;20022;-64
2022/05/17 08:43:39;;;;;;;0.73;0.43;;;;;;;22.19;52.91;102670.94;5019781;28;20021;-65
2022/05/17 08:46:41;;;;;;;1.02;0.40;;;;;;;22.20;52.29;102672.66;5020999;28;20044;-65
2022/05/17 08:49:29;;;;;;;0.90;0.70;;;;;;;22.29;51.86;102671.72;5028231;28;20029;-65
2022/05/17 08:51:59;;;;;;;1.00;0.30;;;;;;;22.24;52.10;102679.56;5028147;28;20052;-65
2022/05/17 08:54:37;;;;;;;1.02;0.70;;;;;;;22.20;51.90;102678.16;5026181;28;20041;-64
2022/05/17 08:57:12;;;;;;;2.15;0.80;;;;;;;22.26;52.28;102679.41;5026289;28;20033;-67
2022/05/17 08:59:37;;;;;;;1.30;0.77;;;;;;;22.30;51.68;102673.44;5028948;28;20745;-66
2022/05/17 09:02:12;;;;;;;1.17;0.47;;;;;;;22.22;51.56;102681.59;5029189;28;20033;-64
2022/05/17 09:04:53;;;;;;;1.73;0.60;;;;;;;22.29;52.20;102682.69;5041403;28;20014;-67
2022/05/17 09:07:42;;;;;;;2.63;0.73;;;;;;;22.34;51.33;102674.88;5027247;28;20034;-67
2022/05/17 09:10:22;;;;;;;3.85;0.65;;;;;;;22.35;50.59;102679.34;4997157;28;20113;-67
2022/05/17 09:13:15;;;;;;;0.77;0.60;;;;;;;22.40;49.93;102682.47;4996239;28;20043;-65
2022/05/17 09:15:43;;;;;;;0.80;0.40;;;;;;;22.34;51.61;102680.38;5004434;28;20050;-66
2022/05/17 09:18:12;;;;;;;1.10;0.57;;;;;;;22.34;51.25;102680.38;5005391;28;20030;-67
2022/05/17 09:20:38;;;;;;;0.70;0.50;;;;;;;22.36;50.80;102675.59;5010185;28;20089;-65
2022/05/17 09:23:04;;;;;;;0.50;0.50;;;;;;;22.30;51.25;102689.88;5001531;28;20030;-66
2022/05/17 09:25:48;;;;;;;1.30;0.47;;;;;;;22.29;51.62;102688.16;4982150;28;20030;-67
2022/05/17 09:28:25;;;;;;;1.10;0.57;;;;;;;22.31;51.37;102686.13;5001138;28;20113;-67
2022/05/17 09:31:11;;;;;;;2.38;0.60;;;;;;;22.25;51.83;102681.28;5000876;28;20030;-63
2022/05/17 09:33:41;;;;;;;1.05;0.70;;;;;;;22.24;51.68;102687.78;5004010;28;20437;-63
2022/05/17 09:36:08;;;;;;;0.55;0.50;;;;;;;22.26;51.73;102688.47;4998293;28;20081;-63
2022/05/17 09:38:39;;;;;;;0.60;0.47;;;;;;;22.26;52.17;102688.47;4999362;28;20117;-63
2022/05/17 09:41:07;;;;;;;11.95;0.93;;;;;;;22.27;52.64;102684.72;5001658;28;20050;-65
2022/05/17 09:43:38;;;;;;;2.00;0.60;;;;;;;22.30;51.11;102683.53;5001202;28;20386;-65
2022/05/17 09:46:12;;;;;;;5.75;0.52;;;;;;;22.26;52.59;102666.56;5001746;28;20030;-66
2022/05/17 09:54:45;;;;;;;2.20;0.50;;;;;;;22.25;51.91;102673.06;5023969;28;20381;-63
2022/05/17 09:57:13;;;;;;;1.27;0.35;;;;;;;22.27;51.88;102670.16;5025976;28;20041;-66
2022/05/17 09:59:38;;;;;;;1.15;0.30;;;;;;;22.24;51.39;102679.56;5023933;28;20485;-66
2022/05/17 10:02:04;;;;;;;0.85;0.30;;;;;;;22.29;52.36;102681.81;5021415;28;20113;-66
2022/05/17 10:04:29;;;;;;;0.80;0.35;;;;;;;22.29;50.25;102682.69;5029458;28;20041;-68
2022/05/17 10:06:56;;;;;;;0.50;0.30;;;;;;;22.28;51.05;102686.44;5026102;28;20039;-68
2022/05/17 10:09:30;;;;;;;0.43;0.20;;;;;;;22.27;51.16;102681.97;5024147;28;20034;-72
2022/05/17 10:12:07;;;;;;;0.75;0.40;;;;;;;22.21;50.55;102685.34;5028004;28;20037;-72
2022/05/17 10:14:40;;;;;;;0.28;0.20;;;;;;;22.29;50.87;102690.91;5035132;28;20033;-73
2022/05/17 10:17:28;;;;;;;2.53;0.30;;;;;;;22.34;50.46;102685.84;5035387;28;20436;-71
2022/05/17 10:19:59;;;;;;;0.30;0.20;;;;;;;22.37;50.86;102696.50;5033038;28;20079;-72
2022/05/17 10:22:35;;;;;;;1.20;0.50;;;;;;;22.39;50.31;102691.72;5034924;28;20384;-72
2022/05/17 10:25:15;;;;;;;0.43;0.20;;;;;;;22.37;51.05;102688.28;5037873;28;20021;-72
2022/05/17 10:27:52;;;;;;;0.68;0.30;;;;;;;22.38;50.30;102691.88;5034919;28;20050;-71
2022/05/17 10:30:52;;;;;;;0.88;0.45;;;;;;;22.40;50.08;102700.81;5035027;28;20033;-72
2022/05/17 10:33:27;;;;;;;0.93;0.20;;;;;;;22.38;49.70;102684.53;5040431;28;20069;-69
2022/05/17 10:36:02;;;;;;;0.20;0.17;;;;;;;22.35;51.25;102700.41;5060109;28;20037;-70
2022/05/17 10:38:38;;;;;;;1.02;0.10;;;;;;;22.36;50.34;102694.78;5049980;28;20036;-72
2022/05/17 10:41:09;;;;;;;0.98;0.10;;;;;;;22.38;49.47;102695.47;5037190;28;20029;-72
2022/05/17 10:43:41;;;;;;;0.38;0.32;;;;;;;22.39;50.37;102694.47;5034796;28;20030;-72
2022/05/17 10:46:19;;;;;;;0.20;0.20;;;;;;;22.38;50.53;102695.47;5034761;28;20038;-73
2022/05/17 10:49:22;;;;;;;0.45;0.13;;;;;;;22.36;50.17;102692.03;5033436;28;20035;-70
2022/05/17 10:52:09;;;;;;;0.43;0.30;;;;;;;22.39;50.24;102697.19;5033350;28;20025;-73
2022/05/17 10:54:56;;;;;;;0.22;0.22;;;;;;;22.38;50.71;102703.69;5033571;28;20087;-72
2022/05/17 10:57:40;;;;;;;0.32;0.20;;;;;;;22.38;50.77;102702.84;5035500;28;20048;-72
2022/05/17 11:00:14;;;;;;;0.35;0.30;;;;;;;22.40;50.27;102700.81;5034535;28;20037;-72
2022/05/17 11:03:04;;;;;;;0.20;0.20;;;;;;;22.41;49.77;102708.88;5034356;28;20428;-72
2022/05/17 11:05:45;;;;;;;0.38;0.22;;;;;;;22.38;50.91;102711.91;5014564;28;20026;-72
2022/05/17 11:08:17;;;;;;;1.05;0.30;;;;;;;22.40;50.15;102712.63;5028659;28;20030;-72
2022/05/17 11:10:42;;;;;;;0.20;0.13;;;;;;;22.39;50.64;102710.91;5026434;28;20420;-72
2022/05/17 11:13:16;;;;;;;0.38;0.20;;;;;;;22.38;50.86;102703.69;5027588;28;20045;-72
2022/05/17 11:15:48;;;;;;;0.30;0.10;;;;;;;22.40;50.12;102709.88;5029965;28;20036;-72
2022/05/17 11:18:21;;;;;;;0.10;0.10;;;;;;;22.37;50.31;102706.59;5028062;28;20068;-72
2022/05/17 11:20:55;;;;;;;0.30;0.20;;;;;;;22.38;50.42;102709.19;5033647;28;20035;-70
2022/05/17 11:23:42;;;;;;;0.50;0.32;;;;;;;22.37;50.13;102712.94;5028073;28;20068;-72
2022/05/17 11:26:28;;;;;;;0.40;0.20;;;;;;;22.38;50.11;102703.69;5036927;28;20040;-71
2022/05/17 11:29:21;;;;;;;1.90;0.30;;;;;;;22.31;50.84;102705.31;5028130;28;20045;-70
2022/05/17 11:32:01;;;;;;;0.38;0.17;;;;;;;22.32;50.43;102708.91;5023575;28;20076;-69
2022/05/17 11:34:33;;;;;;;2.20;0.43;;;;;;;22.36;50.73;102704.88;5022403;28;20033;-67
2022/05/17 11:37:05;;;;;;;0.50;0.20;;;;;;;22.31;50.58;102699.84;5025931;28;20485;-66
2022/05/17 11:39:31;;;;;;;0.75;0.40;;;;;;;22.34;50.24;102709.63;5020590;28;20052;-64
2022/05/17 11:42:30;;;;;;;1.97;0.30;;;;;;;22.32;50.21;102714.41;5028478;28;20465;-65
2022/05/17 11:45:16;;;;;;;1.42;0.50;;;;;;;22.31;50.83;102724.50;5019813;28;20755;-64
2022/05/17 11:47:41;;;;;;;2.25;0.32;;;;;;;22.24;49.78;102717.06;5030715;28;20615;-67
2022/05/17 11:50:15;;;;;;;1.10;0.20;;;;;;;22.29;50.68;102720.19;5026100;28;20037;-67